createdAt,value
2023-02-19T00:01:47.430Z,100.00
2023-02-19T00:04:17.115Z,100.00
2023-02-19T00:06:45.988Z,100.00
2023-02-19T00:09:15.440Z,100.00
2023-02-19T00:11:46.268Z,100.00
2023-02-19T00:14:17.282Z,100.00
2023-02-19T00:16:45.144Z,100.00
2023-02-19T00:19:15.970Z,100.00
2023-02-19T00:21:44.049Z,100.00
2023-02-19T00:24:13.457Z,100.00
2023-02-19T00:26:42.944Z,100.00
2023-02-19T00:29:14.500Z,100.00
2023-02-19T00:31:42.824Z,100.00
2023-02-19T00:34:11.816Z,100.00
2023-02-19T00:36:41.570Z,100.00
2023-02-19T00:39:12.635Z,100.00
2023-02-19T00:41:40.481Z,100.00
2023-02-19T00:44:09.504Z,100.00
2023-02-19T00:46:40.675Z,100.00
2023-02-19T00:49:10.011Z,100.00
2023-02-19T00:51:39.156Z,100.00
2023-02-19T00:54:07.222Z,100.00
2023-02-19T00:56:35.427Z,100.00
2023-02-19T00:59:03.356Z,100.00
2023-02-19T01:01:31.456Z,100.00
2023-02-19T01:04:00.644Z,100.00
2023-02-19T01:06:30.052Z,100.00
2023-02-19T01:08:58.061Z,100.00
2023-02-19T01:11:27.314Z,100.00
2023-02-19T01:13:58.483Z,100.00
2023-02-19T01:16:27.551Z,100.00
2023-02-19T01:18:57.492Z,100.00
2023-02-19T01:21:28.192Z,100.00
2023-02-19T01:23:56.677Z,100.00
2023-02-19T01:26:27.727Z,100.00
2023-02-19T01:28:55.941Z,100.00
2023-02-19T01:31:25.432Z,100.00
2023-02-19T01:33:54.988Z,100.00
2023-02-19T01:36:23.346Z,100.00
2023-02-19T01:38:52.755Z,100.00
2023-02-19T01:41:23.914Z,100.00
2023-02-19T01:43:58.515Z,100.00
2023-02-19T01:46:28.034Z,100.00
2023-02-19T01:48:58.416Z,100.00
2023-02-19T01:51:26.325Z,100.00
2023-02-19T01:53:59.949Z,100.00
2023-02-19T01:56:30.910Z,100.00
2023-02-19T01:58:59.191Z,100.00
2023-02-19T02:01:27.181Z,100.00
2023-02-19T02:03:55.235Z,100.00
2023-02-19T02:06:25.217Z,100.00
2023-02-19T02:09:14.397Z,100.00
2023-02-19T02:11:46.292Z,100.00
2023-02-19T02:14:14.677Z,100.00
2023-02-19T02:16:53.737Z,100.00
2023-02-19T02:19:33.154Z,100.00
2023-02-19T02:22:08.917Z,100.00
2023-02-19T02:25:11.864Z,100.00
2023-02-19T02:27:45.278Z,100.00
2023-02-19T02:30:33.552Z,100.00
2023-02-19T02:33:11.080Z,100.00
2023-02-19T02:35:42.460Z,100.00
2023-02-19T02:38:13.639Z,100.00
2023-02-19T02:40:44.233Z,100.00
2023-02-19T02:43:12.504Z,100.00
2023-02-19T02:45:42.478Z,100.00
2023-02-19T02:48:18.696Z,100.00
2023-02-19T02:50:51.418Z,100.00
2023-02-19T02:53:41.628Z,100.00
2023-02-19T02:56:11.648Z,100.00
2023-02-19T02:58:40.092Z,100.00
2023-02-19T03:01:30.664Z,100.00
2023-02-19T03:04:02.405Z,100.00
2023-02-19T03:06:34.958Z,100.00
2023-02-19T03:09:10.383Z,100.00
2023-02-19T03:12:00.035Z,100.00
2023-02-19T03:14:51.975Z,100.00
2023-02-19T03:17:44.884Z,100.00
2023-02-19T03:20:16.448Z,100.00
2023-02-19T03:22:47.873Z,100.00
2023-02-19T03:25:38.058Z,100.00
2023-02-19T03:28:11.129Z,100.00
2023-02-19T03:30:42.894Z,100.00
2023-02-19T03:33:16.779Z,100.00
2023-02-19T03:35:48.319Z,100.00
2023-02-19T03:38:21.897Z,100.00
2023-02-19T03:40:56.828Z,100.00
2023-02-19T03:43:32.823Z,100.00
2023-02-19T03:46:09.479Z,100.00
2023-02-19T03:48:44.487Z,100.00
2023-02-19T03:51:26.862Z,100.00
2023-02-19T03:54:03.333Z,100.00
2023-02-19T03:56:39.791Z,100.00
2023-02-19T03:59:14.608Z,100.00
2023-02-19T04:01:47.711Z,100.00
2023-02-19T04:04:21.406Z,100.00
2023-02-19T04:06:54.894Z,100.00
2023-02-19T04:09:25.425Z,100.00
2023-02-19T04:11:55.772Z,100.00
2023-02-19T04:14:29.159Z,100.00
2023-02-19T04:17:02.994Z,100.00
2023-02-19T04:19:36.101Z,100.00
2023-02-19T04:22:07.048Z,100.00
2023-02-19T04:24:38.805Z,100.00
2023-02-19T04:27:07.833Z,100.00
2023-02-19T04:29:37.163Z,100.00
2023-02-19T04:32:06.445Z,100.00
2023-02-19T04:34:35.773Z,100.00
2023-02-19T04:37:03.802Z,100.00
2023-02-19T04:39:31.707Z,100.00
2023-02-19T04:41:59.592Z,100.00
2023-02-19T04:44:27.467Z,100.00
2023-02-19T04:46:55.552Z,100.00
2023-02-19T04:49:23.345Z,100.00
2023-02-19T04:51:52.520Z,100.00
2023-02-19T04:54:20.341Z,100.00
2023-02-19T04:56:48.246Z,100.00
2023-02-19T04:59:16.082Z,100.00
2023-02-19T05:01:44.350Z,100.00
2023-02-19T05:04:12.351Z,100.00
2023-02-19T05:06:40.304Z,100.00
2023-02-19T05:09:09.959Z,100.00
2023-02-19T05:11:37.849Z,100.00
2023-02-19T05:14:05.684Z,100.00
2023-02-19T05:16:34.207Z,100.00
2023-02-19T05:19:02.152Z,100.00
2023-02-19T05:21:30.056Z,100.00
2023-02-19T05:23:58.078Z,100.00
2023-02-19T05:26:27.234Z,100.00
2023-02-19T05:28:55.031Z,100.00
2023-02-19T05:31:23.307Z,100.00
2023-02-19T05:33:52.825Z,100.00
2023-02-19T05:36:22.131Z,100.00
2023-02-19T05:38:54.323Z,100.00
2023-02-19T05:41:24.528Z,100.00
2023-02-19T05:43:54.300Z,100.00
2023-02-19T05:46:25.853Z,100.00
2023-02-19T05:48:54.823Z,100.00
2023-02-19T05:51:24.466Z,100.00
2023-02-19T05:53:52.662Z,100.00
2023-02-19T05:56:32.482Z,100.00
2023-02-19T05:59:03.839Z,100.00
2023-02-19T06:01:32.548Z,100.00
2023-02-19T06:04:00.638Z,100.00
2023-02-19T06:06:28.941Z,100.00
2023-02-19T06:08:57.222Z,100.00
2023-02-19T06:11:25.692Z,100.00
2023-02-19T06:13:53.545Z,100.00
2023-02-19T06:16:22.992Z,100.00
2023-02-19T06:18:51.349Z,100.00
2023-02-19T06:21:19.684Z,100.00
2023-02-19T06:23:47.787Z,100.00
2023-02-19T06:26:18.649Z,100.00
2023-02-19T06:28:47.812Z,100.00
2023-02-19T06:31:15.880Z,100.00
2023-02-19T06:33:45.443Z,100.00
2023-02-19T06:36:15.932Z,100.00
2023-02-19T06:38:44.027Z,100.00
2023-02-19T06:41:12.955Z,100.00
2023-02-19T06:43:41.804Z,100.00
2023-02-19T06:46:09.856Z,100.00
2023-02-19T06:48:39.402Z,100.00
2023-02-19T06:51:08.908Z,100.00
2023-02-19T06:53:36.731Z,100.00
2023-02-19T06:56:06.416Z,100.00
2023-02-19T06:58:35.095Z,100.00
2023-02-19T07:01:02.978Z,100.00
2023-02-19T07:03:30.668Z,100.00
2023-02-19T07:06:00.714Z,100.00
2023-02-19T07:08:30.652Z,100.00
2023-02-19T07:10:59.421Z,100.00
2023-02-19T07:13:28.054Z,100.00
2023-02-19T07:15:59.860Z,100.00
2023-02-19T07:18:27.719Z,100.00
2023-02-19T07:20:55.477Z,100.00
2023-02-19T07:23:23.200Z,100.00
2023-02-19T07:25:52.337Z,100.00
2023-02-19T07:28:20.068Z,100.00
2023-02-19T07:30:47.792Z,100.00
2023-02-19T07:33:15.490Z,100.00
2023-02-19T07:35:47.175Z,100.00
2023-02-19T07:38:17.062Z,100.00
2023-02-19T07:40:53.094Z,100.00
2023-02-19T07:43:21.294Z,100.00
2023-02-19T07:45:49.149Z,100.00
2023-02-19T07:48:17.680Z,100.00
2023-02-19T07:50:52.123Z,100.00
2023-02-19T07:53:20.044Z,100.00
2023-02-19T07:55:47.917Z,100.00
2023-02-19T07:58:17.390Z,100.00
2023-02-19T08:00:46.481Z,100.00
2023-02-19T08:03:13.267Z,100.00
2023-02-19T08:05:43.626Z,100.00
2023-02-19T08:08:13.703Z,100.00
2023-02-19T08:10:59.812Z,100.00
2023-02-19T08:13:30.821Z,100.00
2023-02-19T08:16:20.026Z,100.00
2023-02-19T08:18:50.337Z,100.00
2023-02-19T08:21:20.474Z,100.00
2023-02-19T08:23:50.842Z,100.00
2023-02-19T08:26:19.433Z,100.00
2023-02-19T08:28:49.701Z,100.00
2023-02-19T08:31:17.724Z,100.00
2023-02-19T08:33:45.565Z,100.00
2023-02-19T08:36:13.314Z,100.00
2023-02-19T08:38:41.176Z,100.00
2023-02-19T08:41:11.797Z,100.00
2023-02-19T08:43:40.352Z,100.00
2023-02-19T08:46:11.095Z,100.00
2023-02-19T08:48:39.888Z,100.00
2023-02-19T08:51:09.760Z,100.00
2023-02-19T08:53:39.576Z,100.00
2023-02-19T08:56:08.398Z,100.00
2023-02-19T08:58:37.420Z,100.00
2023-02-19T09:01:09.170Z,100.00
2023-02-19T09:03:38.841Z,100.00
2023-02-19T09:06:07.133Z,100.00
2023-02-19T09:08:34.994Z,100.00
2023-02-19T09:11:04.672Z,99.64
2023-02-19T09:13:32.718Z,99.95
2023-02-19T09:16:00.569Z,100.00
2023-02-19T09:18:28.574Z,99.45
2023-02-19T09:21:01.251Z,99.49
2023-02-19T09:23:29.263Z,99.59
2023-02-19T09:26:00.912Z,99.28
2023-02-19T09:28:29.121Z,99.88
2023-02-19T09:30:56.969Z,99.49
2023-02-19T09:33:24.832Z,99.62
2023-02-19T09:35:53.172Z,99.07
2023-02-19T09:38:22.347Z,98.68
2023-02-19T09:40:50.147Z,98.25
2023-02-19T09:43:21.190Z,98.36
2023-02-19T09:45:49.581Z,98.36
2023-02-19T09:48:17.288Z,99.04
2023-02-19T09:50:48.732Z,98.23
2023-02-19T09:53:21.299Z,96.56
2023-02-19T09:55:50.875Z,97.19
2023-02-19T09:58:26.928Z,96.92
2023-02-19T10:00:56.493Z,96.67
2023-02-19T10:03:30.837Z,95.90
2023-02-19T10:06:01.776Z,94.88
2023-02-19T10:08:34.432Z,94.84
2023-02-19T10:11:06.187Z,94.84
2023-02-19T10:13:37.017Z,94.55
2023-02-19T10:16:09.901Z,93.19
2023-02-19T10:18:41.148Z,92.58
2023-02-19T10:21:11.994Z,92.28
2023-02-19T10:23:42.268Z,91.56
2023-02-19T10:26:11.426Z,90.34
2023-02-19T10:28:39.371Z,89.88
2023-02-19T10:31:18.785Z,89.24
2023-02-19T10:33:52.686Z,89.05
2023-02-19T10:36:30.473Z,88.21
2023-02-19T10:39:01.020Z,88.41
2023-02-19T10:41:30.849Z,88.22
2023-02-19T10:44:04.288Z,87.92
2023-02-19T10:46:34.334Z,87.81
2023-02-19T10:49:05.058Z,87.00
2023-02-19T10:51:36.898Z,86.99
2023-02-19T10:54:07.478Z,88.33
2023-02-19T10:56:38.673Z,87.56
2023-02-19T10:59:23.323Z,86.53
2023-02-19T11:01:59.371Z,86.37
2023-02-19T11:04:29.180Z,86.01
2023-02-19T11:06:58.395Z,84.74
2023-02-19T11:09:30.317Z,85.58
2023-02-19T11:11:59.832Z,84.67
2023-02-19T11:14:29.297Z,85.06
2023-02-19T11:16:59.577Z,85.00
2023-02-19T11:19:36.420Z,84.31
2023-02-19T11:22:20.943Z,85.07
2023-02-19T11:24:56.704Z,83.16
2023-02-19T11:27:27.302Z,83.76
2023-02-19T11:29:55.225Z,83.61
2023-02-19T11:32:27.036Z,82.59
2023-02-19T11:35:17.570Z,81.98
2023-02-19T11:37:56.946Z,81.38
2023-02-19T11:40:36.549Z,81.66
2023-02-19T11:43:13.990Z,79.75
2023-02-19T11:45:49.345Z,78.04
2023-02-19T11:48:40.728Z,78.93
2023-02-19T11:51:23.364Z,79.29
2023-02-19T11:54:01.061Z,78.51
2023-02-19T11:56:37.371Z,78.94
2023-02-19T11:59:17.065Z,80.96
2023-02-19T12:02:00.817Z,80.01
2023-02-19T12:05:01.773Z,79.49
2023-02-19T12:07:59.231Z,78.08
2023-02-19T12:10:33.566Z,76.46
2023-02-19T12:13:11.237Z,77.47
2023-02-19T12:16:11.453Z,77.32
2023-02-19T12:19:11.711Z,76.55
2023-02-19T12:21:56.330Z,77.19
2023-02-19T12:25:06.568Z,76.72
2023-02-19T12:27:47.924Z,76.22
2023-02-19T12:30:34.935Z,75.84
2023-02-19T12:33:26.272Z,76.38
2023-02-19T12:36:05.152Z,76.52
2023-02-19T12:38:40.270Z,76.68
2023-02-19T12:41:20.685Z,78.24
2023-02-19T12:43:54.696Z,78.41
2023-02-19T12:46:29.167Z,76.56
2023-02-19T12:49:02.663Z,76.13
2023-02-19T12:51:37.930Z,75.59
2023-02-19T12:54:13.608Z,75.49
2023-02-19T12:56:45.236Z,75.69
2023-02-19T12:59:17.706Z,74.96
2023-02-19T13:01:51.440Z,74.73
2023-02-19T13:04:27.324Z,74.69
2023-02-19T13:07:00.241Z,74.43
2023-02-19T13:09:33.711Z,73.86
2023-02-19T13:12:07.432Z,73.38
2023-02-19T13:14:39.351Z,73.99
2023-02-19T13:17:18.260Z,73.35
2023-02-19T13:19:49.645Z,73.31
2023-02-19T13:22:41.259Z,72.44
2023-02-19T13:25:11.114Z,73.58
2023-02-19T13:28:00.325Z,73.39
2023-02-19T13:30:48.808Z,73.72
2023-02-19T13:33:37.570Z,73.78
2023-02-19T13:36:13.227Z,73.09
2023-02-19T13:38:44.041Z,71.85
2023-02-19T13:41:27.427Z,71.61
2023-02-19T13:44:01.616Z,73.31
2023-02-19T13:46:38.005Z,72.85
2023-02-19T13:49:25.616Z,72.92
2023-02-19T13:51:55.527Z,73.72
2023-02-19T13:54:27.408Z,72.67
2023-02-19T13:57:29.815Z,73.28
2023-02-19T13:59:58.929Z,72.88
2023-02-19T14:02:32.042Z,73.79
2023-02-19T14:05:02.435Z,74.01
2023-02-19T14:07:58.013Z,72.30
2023-02-19T14:10:57.734Z,71.79
2023-02-19T14:14:01.707Z,71.96
2023-02-19T14:16:57.374Z,71.99
2023-02-19T14:19:50.610Z,70.53
2023-02-19T14:23:02.742Z,71.54
2023-02-19T14:25:38.238Z,70.52
2023-02-19T14:28:14.628Z,70.92
2023-02-19T14:30:49.661Z,71.34
2023-02-19T14:33:20.553Z,70.78
2023-02-19T14:35:52.276Z,70.59
2023-02-19T14:38:26.086Z,70.68
2023-02-19T14:40:56.544Z,71.53
2023-02-19T14:43:27.385Z,72.35
2023-02-19T14:45:59.144Z,72.01
2023-02-19T14:48:35.173Z,72.02
2023-02-19T14:51:08.844Z,73.05
2023-02-19T14:53:41.553Z,72.18
2023-02-19T14:56:21.866Z,71.05
2023-02-19T14:59:08.052Z,69.93
2023-02-19T15:01:36.182Z,69.29
2023-02-19T15:04:04.309Z,70.56
2023-02-19T15:06:33.464Z,71.22
2023-02-19T15:09:07.057Z,71.73
2023-02-19T15:11:36.741Z,71.76
2023-02-19T15:14:07.153Z,72.27
2023-02-19T15:16:37.257Z,72.51
2023-02-19T15:19:08.975Z,73.06
2023-02-19T15:21:40.954Z,73.35
2023-02-19T15:24:10.224Z,73.51
2023-02-19T15:26:40.494Z,73.99
2023-02-19T15:29:12.255Z,74.17
2023-02-19T15:31:46.396Z,73.69
2023-02-19T15:34:19.424Z,73.20
2023-02-19T15:36:47.653Z,73.88
2023-02-19T15:39:22.689Z,74.48
2023-02-19T15:41:59.107Z,74.05
2023-02-19T15:44:36.618Z,75.10
2023-02-19T15:47:13.905Z,75.30
2023-02-19T15:49:48.605Z,75.74
2023-02-19T15:52:27.684Z,76.21
2023-02-19T15:55:02.986Z,76.32
2023-02-19T15:57:35.841Z,76.58
2023-02-19T16:00:12.921Z,77.03
2023-02-19T16:02:41.714Z,76.81
2023-02-19T16:05:15.902Z,76.70
2023-02-19T16:07:44.067Z,76.84
2023-02-19T16:10:23.150Z,77.51
2023-02-19T16:13:01.694Z,77.95
2023-02-19T16:15:31.123Z,78.41
2023-02-19T16:17:59.950Z,79.04
2023-02-19T16:20:29.995Z,79.38
2023-02-19T16:23:01.090Z,80.29
2023-02-19T16:25:39.864Z,80.93
2023-02-19T16:28:13.869Z,81.48
2023-02-19T16:30:42.630Z,81.83
2023-02-19T16:33:34.818Z,82.55
2023-02-19T16:36:18.604Z,82.66
2023-02-19T16:39:16.369Z,82.42
2023-02-19T16:42:19.485Z,83.17
2023-02-19T16:44:48.393Z,84.17
2023-02-19T16:47:30.747Z,85.32
2023-02-19T16:49:59.928Z,85.18
2023-02-19T16:52:27.883Z,86.55
2023-02-19T16:54:55.710Z,87.27
2023-02-19T16:57:25.041Z,88.38
2023-02-19T17:12:02.967Z,90.52
2023-02-19T17:14:32.445Z,90.56
2023-02-19T17:17:02.083Z,90.62
2023-02-19T17:19:30.310Z,90.65
2023-02-19T17:21:58.688Z,90.87
2023-02-19T17:24:26.444Z,91.73
2023-02-19T17:26:54.165Z,91.34
2023-02-19T17:29:22.250Z,91.95
2023-02-19T17:31:51.522Z,92.02
2023-02-19T17:34:19.428Z,92.37
2023-02-19T17:36:49.307Z,91.86
2023-02-19T17:39:17.547Z,92.11
2023-02-19T17:41:45.421Z,91.77
2023-02-19T17:44:13.255Z,92.33
2023-02-19T17:46:41.609Z,92.86
2023-02-19T17:49:13.425Z,92.74
2023-02-19T17:51:41.260Z,92.36
2023-02-19T17:54:09.369Z,91.61
2023-02-19T17:56:37.223Z,91.34
2023-02-19T17:59:05.052Z,90.87
2023-02-19T18:01:32.882Z,91.11
2023-02-19T18:04:00.663Z,91.35
2023-02-19T18:06:29.994Z,91.03
2023-02-19T18:08:58.175Z,90.97
2023-02-19T18:11:26.000Z,91.44
2023-02-19T18:13:53.932Z,91.56
2023-02-19T18:16:22.721Z,91.50
2023-02-19T18:18:50.723Z,91.44
2023-02-19T18:21:18.509Z,91.33
2023-02-19T18:23:47.880Z,91.13
2023-02-19T18:26:20.704Z,91.61
2023-02-19T18:28:48.504Z,91.28
2023-02-19T18:31:16.419Z,91.23
2023-02-19T18:33:44.349Z,91.59
2023-02-19T18:36:15.594Z,91.29
2023-02-19T18:38:43.671Z,91.61
2023-02-19T18:41:14.467Z,91.94
2023-02-19T18:43:42.745Z,91.89
2023-02-19T18:46:11.195Z,92.03
2023-02-19T18:48:39.468Z,92.32
2023-02-19T18:51:10.854Z,92.15
2023-02-19T18:53:39.016Z,91.84
2023-02-19T18:56:09.011Z,91.91
2023-02-19T18:58:38.134Z,91.46
2023-02-19T19:01:06.210Z,91.79
2023-02-19T19:03:34.031Z,91.31
2023-02-19T19:06:01.791Z,91.90
2023-02-19T19:08:30.751Z,91.77
2023-02-19T19:10:58.647Z,92.11
2023-02-19T19:13:26.529Z,91.59
2023-02-19T19:15:55.900Z,92.51
2023-02-19T19:18:24.965Z,92.08
2023-02-19T19:20:56.261Z,91.94
2023-02-19T19:23:23.967Z,92.26
2023-02-19T19:25:54.633Z,92.35
2023-02-19T19:28:22.686Z,92.74
2023-02-19T19:30:50.951Z,93.02
2023-02-19T19:33:20.363Z,92.89
2023-02-19T19:35:48.110Z,92.55
2023-02-19T19:38:15.872Z,93.59
2023-02-19T19:40:43.822Z,93.32
2023-02-19T19:43:11.944Z,93.76
2023-02-19T19:45:39.810Z,93.86
2023-02-19T19:48:07.590Z,94.35
2023-02-19T19:50:36.743Z,94.09
2023-02-19T19:53:04.517Z,93.96
2023-02-19T19:55:32.171Z,93.94
2023-02-19T19:58:00.922Z,93.42
2023-02-19T20:00:28.827Z,93.47
2023-02-19T20:02:56.647Z,93.77
2023-02-19T20:05:24.419Z,93.73
2023-02-19T20:07:54.341Z,93.97
2023-02-19T20:10:22.612Z,94.54
2023-02-19T20:12:55.745Z,94.46
2023-02-19T20:15:24.602Z,94.70
2023-02-19T20:17:52.487Z,95.20
2023-02-19T20:20:22.588Z,95.35
2023-02-19T20:22:51.747Z,95.44
2023-02-19T20:25:22.886Z,95.19
2023-02-19T20:27:50.797Z,95.07
2023-02-19T20:30:19.873Z,95.05
2023-02-19T20:32:47.670Z,95.72
2023-02-19T20:35:17.070Z,95.46
2023-02-19T20:37:48.951Z,95.52
2023-02-19T20:40:19.019Z,95.65
2023-02-19T20:42:48.251Z,95.56
2023-02-19T20:45:16.668Z,95.48
2023-02-19T20:47:45.935Z,95.89
2023-02-19T20:50:13.702Z,95.84
2023-02-19T20:52:41.421Z,95.75
2023-02-19T20:55:10.952Z,95.89
2023-02-19T20:57:39.932Z,95.77
2023-02-19T21:00:11.196Z,95.61
2023-02-19T21:02:38.985Z,95.96
2023-02-19T21:05:07.395Z,95.96
2023-02-19T21:07:36.949Z,96.35
2023-02-19T21:10:05.271Z,96.94
2023-02-19T21:12:33.549Z,97.07
2023-02-19T21:15:01.512Z,97.12
2023-02-19T21:17:32.817Z,97.08
2023-02-19T21:20:00.479Z,96.83
2023-02-19T21:22:29.743Z,96.79
2023-02-19T21:24:57.386Z,97.34
2023-02-19T21:27:25.132Z,97.20
2023-02-19T21:29:53.009Z,97.35
2023-02-19T21:32:20.821Z,97.61
2023-02-19T21:34:50.081Z,97.64
2023-02-19T21:37:17.894Z,96.91
2023-02-19T21:39:46.950Z,97.61
2023-02-19T21:42:14.669Z,97.00
2023-02-19T21:44:43.246Z,97.18
2023-02-19T21:47:11.750Z,97.05
2023-02-19T21:49:41.705Z,96.96
2023-02-19T21:52:11.497Z,97.15
2023-02-19T21:54:39.219Z,97.58
2023-02-19T21:57:06.970Z,97.19
2023-02-19T21:59:34.732Z,97.07
2023-02-19T22:02:02.415Z,97.37
2023-02-19T22:04:30.174Z,97.98
2023-02-19T22:06:58.166Z,98.12
2023-02-19T22:09:27.446Z,98.22
2023-02-19T22:11:55.175Z,98.45
2023-02-19T22:14:23.009Z,98.74
2023-02-19T22:16:51.689Z,99.27
2023-02-19T22:19:19.383Z,99.05
2023-02-19T22:21:47.143Z,99.30
2023-02-19T22:24:17.995Z,99.52
2023-02-19T22:26:47.644Z,99.37
2023-02-19T22:29:16.615Z,99.77
2023-02-19T22:31:44.789Z,100.00
2023-02-19T22:34:12.742Z,100.00
2023-02-19T22:36:40.704Z,100.00
2023-02-19T22:39:11.628Z,99.71
2023-02-19T22:41:43.473Z,100.00
2023-02-19T22:44:12.946Z,100.00
2023-02-19T22:46:40.852Z,100.00
2023-02-19T22:49:08.591Z,100.00
2023-02-19T22:51:36.614Z,100.00
2023-02-19T22:54:04.612Z,100.00
2023-02-19T22:56:32.404Z,100.00
2023-02-19T22:59:00.226Z,100.00
2023-02-19T23:01:29.354Z,100.00
2023-02-19T23:03:58.718Z,100.00
2023-02-19T23:06:29.168Z,100.00
2023-02-19T23:08:58.588Z,100.00
2023-02-19T23:11:28.611Z,100.00
2023-02-19T23:13:56.799Z,100.00
2023-02-19T23:16:24.717Z,100.00
2023-02-19T23:18:53.836Z,100.00
2023-02-19T23:21:23.359Z,100.00
2023-02-19T23:23:51.556Z,100.00
2023-02-19T23:26:19.584Z,100.00
2023-02-19T23:28:47.914Z,100.00
2023-02-19T23:31:16.531Z,100.00
2023-02-19T23:33:45.157Z,100.00
2023-02-19T23:36:15.153Z,100.00
2023-02-19T23:38:46.067Z,100.00
2023-02-19T23:41:15.866Z,100.00
2023-02-19T23:43:43.869Z,100.00
2023-02-19T23:46:17.219Z,100.00
2023-02-19T23:48:45.975Z,100.00
2023-02-19T23:51:15.236Z,100.00
2023-02-19T23:53:42.984Z,100.00
2023-02-19T23:56:11.347Z,100.00
2023-02-19T23:58:39.354Z,100.00
